Time;durP1;ratioP1;P1;durP2;ratioP2;P2;SDS_P1;SDS_P2;PMS_P1;PMS_P2;Temp;Humidity;BMP_temperature;BMP_pressure;BME280_temperature;BME280_humidity;BME280_pressure;Samples;Min_cycle;Max_cycle;Signal;HPM_P1;HPM_P2
2021/07/27 00:00:22;;;;;;;4.40;3.35;;;;;;;13.86;100.00;94155.69;5055500;28;20025;-61
2021/07/27 00:02:47;;;;;;;5.72;3.65;;;;;;;13.88;100.00;94158.88;5055257;28;20395;-61
2021/07/27 00:05:18;;;;;;;5.55;3.28;;;;;;;13.87;100.00;94157.28;5055271;28;20025;-62
2021/07/27 00:07:46;;;;;;;4.40;3.28;;;;;;;13.86;100.00;94158.38;5037535;28;20475;-62
2021/07/27 00:10:11;;;;;;;5.85;3.20;;;;;;;13.84;100.00;94147.13;5053413;28;20024;-62
2021/07/27 00:12:47;;;;;;;5.43;3.33;;;;;;;13.86;100.00;94136.06;5067647;28;20108;-61
2021/07/27 00:15:16;;;;;;;4.93;3.55;;;;;;;13.98;100.00;94125.50;5055008;28;20033;-61
2021/07/27 00:17:41;;;;;;;5.15;3.67;;;;;;;14.07;100.00;94115.59;5037781;28;20039;-61
2021/07/27 00:20:16;;;;;;;5.55;3.40;;;;;;;14.09;100.00;94113.38;5055146;28;20028;-62
2021/07/27 00:25:27;;;;;;;7.03;3.28;;;;;;;14.08;100.00;94113.69;5054671;28;20471;-61
2021/07/27 00:28:00;;;;;;;6.90;3.47;;;;;;;14.05;100.00;94111.63;5055004;28;20032;-62
2021/07/27 00:30:32;;;;;;;5.68;3.72;;;;;;;14.01;100.00;94116.84;5037067;28;20055;-62
2021/07/27 00:33:04;;;;;;;;;;;;;;;13.99;100.00;94108.25;5038607;28;20451;-62
2021/07/27 00:35:32;;;;;;;4.93;2.92;;;;;;;13.98;100.00;94103.97;5054663;28;19915;-62
2021/07/27 00:38:09;;;;;;;5.47;3.42;;;;;;;13.98;100.00;94108.56;5054510;28;20498;-62
2021/07/27 00:40:45;;;;;;;7.65;3.50;;;;;;;13.98;100.00;94105.88;5036839;28;20036;-60
2021/07/27 00:43:16;;;;;;;7.07;3.65;;;;;;;13.93;100.00;94104.91;5054399;28;20392;-61
2021/07/27 00:45:46;;;;;;;4.07;3.60;;;;;;;13.88;100.00;94106.94;5053586;28;20289;-60
2021/07/27 00:48:11;;;;;;;5.25;3.40;;;;;;;13.81;100.00;94095.81;5036701;28;20029;-62
2021/07/27 00:50:38;;;;;;;5.60;3.75;;;;;;;13.74;100.00;94111.63;5054216;28;20039;-58
2021/07/27 00:53:05;;;;;;;4.55;3.30;;;;;;;13.70;100.00;94097.19;5054632;28;20024;-61
2021/07/27 00:55:31;;;;;;;4.43;3.63;;;;;;;13.62;100.00;94126.41;5054422;28;20025;-61
2021/07/27 00:58:00;;;;;;;5.13;3.22;;;;;;;13.52;100.00;94133.94;5053946;28;20515;-59
2021/07/27 01:00:26;;;;;;;5.78;3.58;;;;;;;13.42;100.00;94150.31;5056498;28;20467;-60
2021/07/27 01:02:54;;;;;;;5.15;3.70;;;;;;;13.29;100.00;94155.47;5074152;28;20029;-62
2021/07/27 01:05:20;;;;;;;4.82;3.22;;;;;;;13.21;100.00;94153.47;5056183;28;20082;-62
2021/07/27 01:07:46;;;;;;;5.35;3.60;;;;;;;13.17;100.00;94146.31;5074377;28;20028;-62
2021/07/27 01:10:13;;;;;;;3.63;2.88;;;;;;;13.09;100.00;94163.94;5063463;28;20023;-62
2021/07/27 01:12:44;;;;;;;3.33;2.92;;;;;;;13.02;100.00;94163.56;5065511;28;20025;-62
2021/07/27 01:15:10;;;;;;;6.07;3.78;;;;;;;12.97;100.00;94161.00;5054134;28;20105;-60
2021/07/27 01:17:43;;;;;;;4.25;3.53;;;;;;;12.96;100.00;94170.16;5053646;28;20025;-62
2021/07/27 01:39:34;;;;;;;4.45;3.17;;;;;;;13.03;100.00;94160.59;5053820;28;20032;-61
2021/07/27 01:42:08;;;;;;;3.97;3.05;;;;;;;13.04;100.00;94153.31;5053470;28;20029;-60
2021/07/27 01:44:49;;;;;;;5.70;3.63;;;;;;;13.03;100.00;94159.78;5053402;28;20025;-61
2021/07/27 01:47:18;;;;;;;3.45;2.88;;;;;;;13.01;100.00;94148.53;5053470;28;20029;-59
2021/07/27 01:49:47;;;;;;;6.55;4.28;;;;;;;12.99;100.00;94151.53;5053274;28;20029;-59
2021/07/27 01:52:17;;;;;;;6.18;3.80;;;;;;;12.95;100.00;94147.84;5053332;28;20028;-58
2021/07/27 01:54:56;;;;;;;7.35;3.50;;;;;;;12.93;100.00;94155.44;5053264;28;20020;-58
2021/07/27 01:57:25;;;;;;;6.00;3.40;;;;;;;12.91;100.00;94152.22;5060390;28;20035;-60
2021/07/27 01:59:54;;;;;;;9.40;3.55;;;;;;;12.88;100.00;94155.53;5072890;28;20048;-59
2021/07/27 02:02:19;;;;;;;4.57;3.35;;;;;;;12.86;100.00;94156.94;5055207;28;20124;-60
2021/07/27 02:04:45;;;;;;;6.22;3.40;;;;;;;12.85;100.00;94148.06;5072953;28;20099;-61
2021/07/27 02:07:16;;;;;;;8.95;3.72;;;;;;;12.87;100.00;94147.78;5073068;28;20043;-60
2021/07/27 02:09:44;;;;;;;4.82;3.20;;;;;;;12.88;100.00;94143.97;5057959;28;20038;-60
2021/07/27 02:12:16;;;;;;;9.88;3.80;;;;;;;12.89;100.00;94145.56;5072473;28;20050;-60
2021/07/27 02:17:25;;;;;;;5.90;3.25;;;;;;;13.00;100.00;94130.81;5052925;28;20507;-61
2021/07/27 02:19:58;;;;;;;8.10;3.97;;;;;;;13.01;100.00;94141.25;5052692;28;20021;-59
2021/07/27 02:22:29;;;;;;;6.88;3.30;;;;;;;12.96;100.00;94137.91;5052521;28;20079;-61
2021/07/27 02:24:56;;;;;;;10.88;3.33;;;;;;;12.95;100.00;94129.03;5034791;28;20033;-59
2021/07/27 02:27:34;;;;;;;7.20;3.45;;;;;;;12.99;100.00;94124.63;5052546;28;20079;-61
2021/07/27 02:30:04;;;;;;;8.13;3.90;;;;;;;13.09;100.00;94123.63;5034829;28;20036;-60
2021/07/27 02:32:34;;;;;;;7.80;3.47;;;;;;;13.09;100.00;94126.31;5052461;28;20506;-61
2021/07/27 02:35:11;;;;;;;13.32;3.70;;;;;;;13.07;100.00;94113.19;5052556;28;20099;-59
2021/07/27 02:37:37;;;;;;;5.43;3.20;;;;;;;13.05;100.00;94117.28;5034596;28;20380;-61
2021/07/27 02:40:10;;;;;;;8.55;3.92;;;;;;;13.00;100.00;94115.47;5052469;28;20032;-60
2021/07/27 02:42:36;;;;;;;7.18;3.65;;;;;;;12.98;100.00;94122.25;5052410;28;20171;-59
2021/07/27 02:45:03;;;;;;;7.68;2.75;;;;;;;12.95;100.00;94120.19;5052262;28;20021;-61
2021/07/27 02:47:29;;;;;;;6.47;3.60;;;;;;;12.96;100.00;94127.16;5052351;28;20036;-60
2021/07/27 02:49:54;;;;;;;5.60;3.33;;;;;;;12.94;100.00;94124.75;5052294;28;20028;-57
2021/07/27 02:52:22;;;;;;;7.15;3.38;;;;;;;13.00;100.00;94123.53;5052338;28;20048;-59
2021/07/27 02:54:50;;;;;;;14.57;3.53;;;;;;;12.99;100.00;94121.16;5052226;28;20100;-61
2021/07/27 02:57:15;;;;;;;6.60;3.13;;;;;;;12.95;100.00;94129.03;5052191;28;20102;-58
2021/07/27 02:59:44;;;;;;;6.18;3.35;;;;;;;12.91;100.00;94130.72;5051834;28;20040;-60
2021/07/27 03:02:22;;;;;;;4.43;3.15;;;;;;;12.83;100.00;94128.78;5052134;28;20028;-61
2021/07/27 03:05:00;;;;;;;6.10;3.10;;;;;;;12.77;100.00;94128.06;5052147;28;20029;-58
2021/07/27 03:10:20;;;;;;;8.15;3.03;;;;;;;12.66;100.00;94128.59;5067797;28;20574;-60
2021/07/27 03:13:00;;;;;;;7.15;3.00;;;;;;;12.65;100.00;94121.63;5062373;28;20052;-59
2021/07/27 03:18:19;;;;;;;6.20;2.75;;;;;;;12.59;100.00;94134.38;5059313;28;20036;-61
2021/07/27 03:20:47;;;;;;;5.00;3.08;;;;;;;12.57;100.00;94141.94;5071858;28;20048;-58
2021/07/27 03:23:21;;;;;;;10.05;3.72;;;;;;;12.61;100.00;94142.13;5072124;28;20052;-56
2021/07/27 03:25:55;;;;;;;10.07;3.20;;;;;;;12.62;100.00;94135.66;5071884;28;20028;-60
2021/07/27 03:28:20;;;;;;;9.18;3.33;;;;;;;12.65;100.00;94130.47;5072014;28;20021;-60
2021/07/27 03:30:48;;;;;;;6.50;3.10;;;;;;;12.65;100.00;94132.38;5071861;28;20020;-57
2021/07/27 03:33:14;;;;;;;7.38;3.17;;;;;;;12.66;100.00;94129.38;5071752;28;20596;-60
2021/07/27 03:35:43;;;;;;;5.95;3.28;;;;;;;12.65;100.00;94130.47;5054078;28;20028;-60
2021/07/27 03:38:14;;;;;;;6.00;3.63;;;;;;;12.64;100.00;94123.53;5072147;28;20081;-59
2021/07/27 03:40:41;;;;;;;6.63;3.55;;;;;;;12.64;100.00;94126.22;5037683;28;20486;-59
2021/07/27 03:43:07;;;;;;;7.75;3.03;;;;;;;12.65;100.00;94117.06;5071935;28;20036;-60
2021/07/27 03:45:45;;;;;;;6.47;3.00;;;;;;;12.65;100.00;94122.44;5071581;28;20021;-60
2021/07/27 03:48:14;;;;;;;5.32;2.90;;;;;;;12.64;100.00;94117.34;5053917;28;20044;-57
2021/07/27 03:50:39;;;;;;;8.25;3.13;;;;;;;12.63;100.00;94124.63;5058852;28;20032;-60
2021/07/27 03:53:31;;;;;;;6.75;3.35;;;;;;;12.64;100.00;94115.47;5071715;28;20479;-56
2021/07/27 03:56:07;;;;;;;5.30;2.75;;;;;;;12.64;100.00;94118.16;5068602;28;20029;-58
2021/07/27 03:58:36;;;;;;;4.65;3.13;;;;;;;12.69;100.00;94109.97;5071830;28;20044;-53
2021/07/27 04:01:07;;;;;;;5.40;2.92;;;;;;;12.76;100.00;94101.50;5071614;28;20032;-56
2021/07/27 04:04:10;;;;;;;6.80;3.10;;;;;;;12.81;100.00;94105.97;5071681;28;20415;-51
2021/07/27 04:06:38;;;;;;;4.18;2.83;;;;;;;12.83;100.00;94101.09;5066113;28;20399;-53
2021/07/27 04:09:04;;;;;;;6.38;3.28;;;;;;;12.86;100.00;94108.56;5051607;28;20031;-57
2021/07/27 04:11:35;;;;;;;9.30;3.33;;;;;;;12.87;100.00;94108.25;5061661;28;20036;-55
2021/07/27 04:14:04;;;;;;;7.13;3.33;;;;;;;12.89;100.00;94107.94;5070532;28;20024;-53
2021/07/27 04:16:39;;;;;;;5.43;3.13;;;;;;;12.87;100.00;94102.09;5059880;28;20039;-55
2021/07/27 04:19:05;;;;;;;3.85;3.15;;;;;;;12.88;100.00;94101.78;5051691;28;20040;-54
2021/07/27 04:21:34;;;;;;;7.88;3.20;;;;;;;12.89;100.00;94102.56;5052863;28;20071;-56
2021/07/27 04:24:01;;;;;;;5.10;2.90;;;;;;;12.87;100.00;94092.13;5054234;28;20079;-52
2021/07/27 04:26:29;;;;;;;10.73;3.10;;;;;;;12.82;100.00;94091.47;5054182;28;20059;-54
2021/07/27 04:29:15;;;;;;;6.72;3.33;;;;;;;12.80;100.00;94090.94;5064900;28;20032;-54
2021/07/27 04:31:50;;;;;;;10.77;3.15;;;;;;;12.80;100.00;94099.78;5053843;28;20029;-52
2021/07/27 04:34:15;;;;;;;3.67;2.90;;;;;;;12.77;100.00;94092.34;5063587;28;20020;-53
2021/07/27 04:36:49;;;;;;;6.75;3.63;;;;;;;12.77;100.00;94092.34;5053690;28;20032;-56
2021/07/27 04:39:17;;;;;;;7.35;3.08;;;;;;;12.76;100.00;94091.56;5046604;28;20028;-53
2021/07/27 04:41:43;;;;;;;8.52;3.67;;;;;;;12.79;100.00;94084.78;5037894;28;20021;-58
2021/07/27 04:44:08;;;;;;;6.38;3.58;;;;;;;12.82;100.00;94086.09;5038040;28;20369;-54
2021/07/27 04:46:47;;;;;;;6.45;3.72;;;;;;;12.86;100.00;94076.31;5073808;28;20028;-56
2021/07/27 04:49:16;;;;;;;3.78;3.10;;;;;;;12.91;100.00;94070.81;5055843;28;20488;-55
2021/07/27 04:51:46;;;;;;;6.18;3.17;;;;;;;13.03;100.00;94058.44;5055343;28;20540;-60
2021/07/27 04:54:26;;;;;;;9.52;3.67;;;;;;;13.17;100.00;94062.97;5074006;28;20551;-56
2021/07/27 04:56:53;;;;;;;8.93;3.75;;;;;;;13.29;100.00;94052.47;5062351;28;20024;-54
2021/07/27 04:59:21;;;;;;;5.75;3.17;;;;;;;13.42;100.00;94046.22;5052127;28;20049;-54
2021/07/27 05:01:50;;;;;;;6.47;3.75;;;;;;;13.54;100.00;94035.69;5051987;28;20036;-58
2021/07/27 05:04:40;;;;;;;3.80;3.40;;;;;;;13.67;100.00;94025.13;5050744;28;20125;-53
2021/07/27 05:07:13;;;;;;;5.25;3.65;;;;;;;13.84;100.00;94011.75;5033626;28;20018;-56
2021/07/27 05:09:38;;;;;;;;;;;;;;;13.99;100.00;94000.56;5039843;28;20039;-56
2021/07/27 05:12:04;;;;;;;6.70;3.67;;;;;;;14.13;100.00;93992.38;5058034;28;19909;-57
2021/07/27 05:14:33;;;;;;;9.05;4.28;;;;;;;14.26;100.00;93986.06;5044488;28;20820;-54
2021/07/27 05:17:13;;;;;;;5.88;3.80;;;;;;;14.43;100.00;93983.38;5033291;28;20065;-52
2021/07/27 05:19:51;;;;;;;8.00;4.32;;;;;;;14.55;100.00;93963.97;5046122;28;20120;-52
2021/07/27 05:22:17;;;;;;;6.53;4.07;;;;;;;14.65;100.00;93960.94;5048147;28;20025;-55
2021/07/27 05:24:53;;;;;;;6.05;4.60;;;;;;;14.78;100.00;93960.00;5033159;28;20023;-55
2021/07/27 05:27:27;;;;;;;6.20;4.40;;;;;;;14.85;100.00;93951.41;5033182;28;20029;-51
2021/07/27 05:29:56;;;;;;;5.13;4.20;;;;;;;14.94;100.00;93943.31;5031294;28;20025;-55
2021/07/27 05:32:23;;;;;;;5.78;4.53;;;;;;;14.96;100.00;93943.78;5032677;28;20460;-56
2021/07/27 05:34:54;;;;;;;8.27;4.57;;;;;;;15.01;100.00;93935.53;5032961;28;20067;-58
2021/07/27 05:37:20;;;;;;;8.40;4.35;;;;;;;15.04;100.00;93929.50;5033010;28;20377;-58
2021/07/27 05:39:48;;;;;;;4.07;3.67;;;;;;;15.14;100.00;93931.06;5032371;28;20033;-55
2021/07/27 05:42:14;;;;;;;4.63;3.78;;;;;;;15.13;100.00;93930.28;5032770;28;20029;-55
2021/07/27 05:44:40;;;;;;;4.38;3.17;;;;;;;15.23;100.00;93924.53;5034905;28;20032;-55
2021/07/27 05:47:08;;;;;;;4.40;3.15;;;;;;;15.43;100.00;93917.66;5052826;28;20025;-54
2021/07/27 05:49:35;;;;;;;7.18;3.45;;;;;;;15.52;100.00;93923.00;5036920;28;20025;-55
2021/07/27 05:52:01;;;;;;;5.82;3.17;;;;;;;15.67;100.00;93911.69;5032331;28;20384;-54
2021/07/27 05:54:32;;;;;;;5.13;3.40;;;;;;;15.88;100.00;93911.75;5032602;28;20025;-55
2021/07/27 05:57:00;;;;;;;4.10;3.35;;;;;;;16.04;100.00;93901.94;5032427;28;20088;-54
2021/07/27 05:59:28;;;;;;;4.18;3.10;;;;;;;16.11;100.00;93902.22;5048483;28;20059;-57
2021/07/27 06:01:55;;;;;;;4.30;3.00;;;;;;;16.28;100.00;93887.81;5051999;28;20025;-52
2021/07/27 06:04:27;;;;;;;3.88;3.10;;;;;;;16.51;100.00;93883.66;5052288;28;20059;-54
2021/07/27 06:07:02;;;;;;;5.97;3.20;;;;;;;16.72;100.00;93863.97;5034426;28;20464;-59
2021/07/27 06:09:30;;;;;;;5.78;3.40;;;;;;;16.91;100.00;93847.19;5052054;28;20036;-58
2021/07/27 06:12:05;;;;;;;4.63;3.00;;;;;;;17.08;100.00;93836.22;5070255;28;20099;-54
2021/07/27 06:14:32;;;;;;;3.92;2.78;;;;;;;17.23;100.00;93830.13;5040380;28;20132;-55
2021/07/27 06:16:58;;;;;;;4.15;3.03;;;;;;;17.33;100.00;93826.19;5052306;28;20027;-55
2021/07/27 06:19:26;;;;;;;6.53;3.28;;;;;;;17.52;100.00;93806.69;5059558;28;20450;-58
2021/07/27 06:21:52;;;;;;;6.38;3.22;;;;;;;17.65;100.00;93794.72;5033784;28;20021;-57
2021/07/27 06:24:17;;;;;;;5.07;3.35;;;;;;;17.78;100.00;93777.34;5051989;28;20081;-56
2021/07/27 06:26:48;;;;;;;5.20;3.30;;;;;;;18.01;100.00;93764.06;5051900;28;20025;-58
2021/07/27 06:29:16;;;;;;;6.22;3.75;;;;;;;18.20;100.00;93747.97;5052127;28;20498;-57
2021/07/27 06:31:44;;;;;;;4.70;3.35;;;;;;;18.37;100.00;93744.19;5051538;28;20467;-59
2021/07/27 06:34:09;;;;;;;5.20;3.38;;;;;;;18.48;100.00;93734.44;5051881;28;20035;-55
2021/07/27 06:36:37;;;;;;;4.25;3.40;;;;;;;18.56;100.00;93732.69;5051703;28;20636;-57
2021/07/27 06:39:12;;;;;;;5.47;3.17;;;;;;;18.81;100.00;93730.66;5051691;28;20427;-55
2021/07/27 06:41:40;;;;;;;3.58;2.97;;;;;;;18.97;100.00;93753.13;5051452;28;20060;-52
2021/07/27 06:44:23;;;;;;;5.25;3.60;;;;;;;19.11;100.00;93766.28;5050921;28;20025;-54
2021/07/27 06:46:56;;;;;;;5.50;3.47;;;;;;;19.31;100.00;93835.00;5051515;28;20121;-55
2021/07/27 06:49:24;;;;;;;4.25;2.88;;;;;;;19.47;100.00;93900.19;5051565;28;20029;-56
2021/07/27 06:51:54;;;;;;;5.43;3.08;;;;;;;19.53;100.00;93943.03;5051204;28;20108;-53
2021/07/27 06:54:22;;;;;;;4.65;2.90;;;;;;;19.59;100.00;93966.13;5051593;28;20029;-57
2021/07/27 06:56:47;;;;;;;5.45;3.75;;;;;;;19.57;100.00;94021.94;5051531;28;20024;-54
2021/07/27 06:59:13;;;;;;;4.55;3.15;;;;;;;19.51;100.00;94015.91;5051225;28;20499;-53
2021/07/27 07:01:38;;;;;;;5.20;3.15;;;;;;;19.46;100.00;94088.72;5051102;28;20036;-58
2021/07/27 07:04:06;;;;;;;5.90;3.08;;;;;;;19.49;100.00;94102.41;5051522;28;20492;-52
2021/07/27 07:06:37;;;;;;;4.53;3.25;;;;;;;19.52;100.00;94098.97;5051392;28;20024;-55
2021/07/27 07:09:09;;;;;;;5.53;3.28;;;;;;;19.56;100.00;94102.63;5051311;28;20033;-56
2021/07/27 07:11:38;;;;;;;4.32;3.50;;;;;;;19.58;100.00;94116.66;5063413;28;20055;-56
2021/07/27 07:14:08;;;;;;;5.35;3.75;;;;;;;19.66;100.00;94152.97;5065098;28;20079;-55
2021/07/27 07:16:34;;;;;;;5.20;3.40;;;;;;;19.65;100.00;94184.00;5058428;28;20066;-55
2021/07/27 07:18:59;;;;;;;4.40;3.53;;;;;;;19.81;100.00;94184.84;5052965;28;20056;-58
2021/07/27 07:21:30;;;;;;;6.43;3.78;;;;;;;19.88;100.00;94197.84;5050917;28;20092;-59
2021/07/27 07:23:55;;;;;;;5.10;3.63;;;;;;;20.06;100.00;94210.00;5051196;28;20025;-55
2021/07/27 07:26:20;;;;;;;3.95;3.10;;;;;;;20.25;100.00;94271.91;5051086;28;20480;-59
2021/07/27 07:28:46;;;;;;;3.95;3.45;;;;;;;20.55;100.00;94285.97;5050954;28;20107;-59
2021/07/27 07:31:19;;;;;;;4.68;3.17;;;;;;;20.75;100.00;94314.91;5032967;28;20040;-59
2021/07/27 07:33:54;;;;;;;5.07;3.50;;;;;;;20.78;100.00;94327.81;5033313;28;20031;-55
2021/07/27 07:36:20;;;;;;;3.15;2.80;;;;;;;20.95;100.00;94320.47;5033310;28;20017;-59
2021/07/27 07:38:47;;;;;;;3.42;2.97;;;;;;;21.05;100.00;94314.50;5050902;28;20120;-58
2021/07/27 07:41:21;;;;;;;5.03;3.20;;;;;;;21.34;100.00;94333.19;5032875;28;20053;-54
2021/07/27 07:43:49;;;;;;;4.40;3.13;;;;;;;21.48;100.00;94313.69;5051186;28;20075;-59
2021/07/27 07:46:23;;;;;;;4.82;3.67;;;;;;;21.70;100.00;94342.25;5051000;28;20021;-57
2021/07/27 07:48:51;;;;;;;6.68;3.80;;;;;;;21.78;100.00;94368.53;5050951;28;20064;-58
2021/07/27 07:51:17;;;;;;;4.00;3.45;;;;;;;21.77;100.00;94375.13;5050584;28;20107;-60
2021/07/27 07:53:42;;;;;;;4.72;3.25;;;;;;;21.85;100.00;94333.28;5050926;28;20068;-60
2021/07/27 07:56:10;;;;;;;4.50;3.58;;;;;;;21.87;100.00;94401.06;5036930;28;20038;-59
2021/07/27 07:58:38;;;;;;;5.63;3.50;;;;;;;22.10;100.00;94431.25;5054312;28;20053;-60
2021/07/27 08:01:10;;;;;;;5.13;3.40;;;;;;;22.24;100.00;94445.22;5054304;28;20114;-58
2021/07/27 08:03:36;;;;;;;6.15;3.83;;;;;;;22.34;100.00;94408.41;5061694;28;20028;-57
2021/07/27 08:06:01;;;;;;;5.15;3.50;;;;;;;22.39;100.00;94462.72;5074274;28;20106;-60
2021/07/27 08:08:27;;;;;;;4.75;3.95;;;;;;;22.33;100.00;94455.94;5056495;28;20438;-56
2021/07/27 08:11:09;;;;;;;5.47;3.80;;;;;;;22.36;100.00;94401.47;5074326;28;20031;-58
2021/07/27 08:13:38;;;;;;;5.40;3.88;;;;;;;22.29;100.00;94414.94;5076120;28;20373;-60
2021/07/27 08:16:12;;;;;;;5.20;3.90;;;;;;;22.40;100.00;94380.50;5054435;28;20028;-56
2021/07/27 08:18:40;;;;;;;5.43;3.85;;;;;;;22.20;100.00;94412.41;5058629;28;20047;-58
2021/07/27 08:21:08;;;;;;;6.68;4.53;;;;;;;22.17;100.00;94421.31;5038524;28;20075;-58
2021/07/27 08:23:40;;;;;;;5.38;3.60;;;;;;;22.45;100.00;94373.97;5054308;28;20049;-56
2021/07/27 08:26:16;;;;;;;5.35;4.20;;;;;;;22.66;100.00;94384.56;5054214;28;20028;-53
2021/07/27 08:28:46;;;;;;;7.22;3.60;;;;;;;22.64;100.00;94395.84;5054360;28;20623;-60
2021/07/27 08:31:14;;;;;;;5.05;3.13;;;;;;;22.65;100.00;94413.78;5066195;28;20503;-56
2021/07/27 08:33:42;;;;;;;4.45;3.72;;;;;;;22.77;100.00;94516.63;5036371;28;20078;-60
2021/07/27 08:36:16;;;;;;;4.18;3.67;;;;;;;22.69;100.00;94542.19;5054253;28;20493;-60
2021/07/27 08:38:47;;;;;;;4.80;3.83;;;;;;;22.52;100.00;94524.25;5067292;28;20550;-60
2021/07/27 08:41:27;;;;;;;4.95;3.38;;;;;;;22.39;100.00;94488.06;5036024;28;20021;-61
2021/07/27 08:44:01;;;;;;;4.93;3.97;;;;;;;22.18;100.00;94449.38;5053909;28;20445;-60
2021/07/27 08:46:31;;;;;;;5.78;3.63;;;;;;;22.08;100.00;94428.88;5036267;28;20057;-58
2021/07/27 08:48:58;;;;;;;6.25;3.92;;;;;;;22.00;100.00;94400.63;5060851;28;20060;-60
2021/07/27 08:51:24;;;;;;;5.15;3.80;;;;;;;21.93;100.00;94392.28;5073295;28;20028;-58
2021/07/27 08:53:50;;;;;;;7.85;3.80;;;;;;;21.85;100.00;94425.97;5073715;28;20050;-60
2021/07/27 08:56:16;;;;;;;7.05;4.00;;;;;;;21.51;100.00;94389.28;5055661;28;20029;-60
2021/07/27 08:58:50;;;;;;;5.07;4.32;;;;;;;21.29;100.00;94366.16;5073494;28;20048;-61
2021/07/27 09:01:30;;;;;;;6.80;4.10;;;;;;;21.08;100.00;94354.69;5073240;28;20040;-61
2021/07/27 09:03:58;;;;;;;5.53;4.50;;;;;;;20.97;100.00;94332.63;5056092;28;20032;-61
2021/07/27 09:06:30;;;;;;;6.20;3.95;;;;;;;20.88;100.00;94328.47;5072447;28;20047;-60
2021/07/27 09:09:09;;;;;;;6.38;4.30;;;;;;;20.91;100.00;94308.72;5073327;28;20491;-60
2021/07/27 09:11:46;;;;;;;5.57;3.83;;;;;;;20.92;100.00;94310.28;5079266;28;20026;-60
2021/07/27 09:14:22;;;;;;;5.32;4.10;;;;;;;20.89;100.00;94306.34;5064854;28;20033;-61
2021/07/27 09:16:54;;;;;;;6.45;4.18;;;;;;;20.83;100.00;94322.13;5053330;28;20028;-60
2021/07/27 09:19:20;;;;;;;7.18;3.95;;;;;;;20.78;100.00;94311.50;5060111;28;20024;-62
2021/07/27 09:22:04;;;;;;;6.35;4.38;;;;;;;20.70;100.00;94293.38;5035528;28;20037;-61
2021/07/27 09:24:29;;;;;;;7.57;4.53;;;;;;;20.60;100.00;94299.31;5035328;28;20052;-59
2021/07/27 09:26:56;;;;;;;5.03;4.45;;;;;;;20.57;100.00;94299.25;5035283;28;20499;-59
2021/07/27 09:29:23;;;;;;;5.57;4.38;;;;;;;20.47;100.00;94298.59;5034618;28;20066;-58
2021/07/27 09:31:52;;;;;;;4.88;4.32;;;;;;;20.41;100.00;94288.28;5053123;28;20029;-59
2021/07/27 09:34:23;;;;;;;6.57;4.70;;;;;;;20.43;100.00;94295.00;5018698;28;20094;-61
2021/07/27 09:37:04;;;;;;;9.98;4.88;;;;;;;20.42;100.00;94282.53;5035040;28;20017;-58
2021/07/27 09:39:30;;;;;;;7.32;4.43;;;;;;;20.43;100.00;94288.75;5052499;28;20032;-59
2021/07/27 09:42:00;;;;;;;6.75;5.07;;;;;;;20.46;100.00;94283.41;5052660;28;20032;-61
2021/07/27 09:44:30;;;;;;;6.78;5.38;;;;;;;20.41;100.00;94296.44;5052927;28;20033;-57
2021/07/27 09:47:21;;;;;;;6.22;4.75;;;;;;;20.62;100.00;94290.81;5034812;28;20025;-57
2021/07/27 09:49:52;;;;;;;7.03;5.32;;;;;;;20.76;100.00;94280.31;5052228;28;20383;-59
2021/07/27 09:52:17;;;;;;;6.50;5.35;;;;;;;20.86;100.00;94296.16;5038191;28;20029;-57
2021/07/27 09:54:48;;;;;;;5.75;4.97;;;;;;;20.99;100.00;94313.19;5072486;28;20040;-57
2021/07/27 09:57:16;;;;;;;6.25;5.30;;;;;;;21.12;100.00;94306.53;5072539;28;20028;-58
2021/07/27 09:59:42;;;;;;;7.68;5.82;;;;;;;21.11;100.00;94326.75;5105553;22;20520;-62
2021/07/27 10:02:17;;;;;;;5.60;4.95;;;;;;;21.12;100.00;94337.28;5056847;28;20027;-61
2021/07/27 10:04:50;;;;;;;7.47;5.25;;;;;;;21.22;100.00;94344.16;5072486;28;20030;-62
2021/07/27 10:07:35;;;;;;;6.35;5.22;;;;;;;21.33;100.00;94341.72;5093202;28;19919;-59
2021/07/27 10:10:06;;;;;;;6.72;5.40;;;;;;;21.58;100.00;94334.16;5080170;28;20482;-61
2021/07/27 10:12:43;;;;;;;6.80;5.55;;;;;;;21.72;100.00;94331.81;5090711;28;20028;-61
2021/07/27 10:15:15;;;;;;;6.90;5.47;;;;;;;21.80;100.00;94366.25;5091672;28;20020;-61
2021/07/27 10:17:54;;;;;;;;;;;;;;;21.90;100.00;94378.53;5063925;28;20027;-61
2021/07/27 10:20:35;;;;;;;5.78;5.15;;;;;;;21.89;100.00;94402.28;5072677;28;19916;-61
2021/07/27 10:23:12;;;;;;;10.63;5.10;;;;;;;22.04;100.00;94389.81;5053660;28;20070;-61
2021/07/27 10:25:58;;;;;;;7.13;5.15;;;;;;;22.54;100.00;94396.41;5078848;28;20020;-60
2021/07/27 10:28:25;;;;;;;6.13;4.95;;;;;;;22.50;100.00;94444.66;5073795;28;20489;-61
2021/07/27 10:31:07;;;;;;;8.13;5.13;;;;;;;22.47;100.00;94446.16;5081491;28;20055;-60
2021/07/27 10:33:34;;;;;;;7.15;5.07;;;;;;;22.59;100.00;94422.63;5091738;28;20493;-62
2021/07/27 10:36:05;;;;;;;7.15;4.88;;;;;;;22.81;100.00;94443.78;5091993;28;20385;-61
2021/07/27 10:38:36;;;;;;;7.80;5.05;;;;;;;22.85;100.00;94442.72;5073929;28;20085;-62
2021/07/27 10:41:18;;;;;;;7.10;5.43;;;;;;;22.66;100.00;94452.78;5091995;28;20066;-61
2021/07/27 10:43:44;;;;;;;7.35;5.50;;;;;;;22.92;100.00;94444.81;5091935;28;20081;-60
2021/07/27 10:46:13;;;;;;;7.32;4.70;;;;;;;22.93;100.00;94494.78;5090461;28;20465;-61
2021/07/27 10:48:42;;;;;;;8.68;5.47;;;;;;;22.92;100.00;94504.91;5073755;28;20056;-61
2021/07/27 10:51:22;;;;;;;6.68;4.78;;;;;;;23.00;100.00;94492.97;5090617;28;20459;-61
2021/07/27 10:53:52;;;;;;;7.22;5.28;;;;;;;22.97;100.00;94501.09;5073713;28;20097;-60
2021/07/27 10:56:28;;;;;;;6.18;4.88;;;;;;;22.99;100.00;94493.31;5073649;28;20020;-62
2021/07/27 10:58:53;;;;;;;5.05;4.50;;;;;;;23.17;100.00;94458.19;5086288;28;20125;-59
2021/07/27 11:01:21;;;;;;;6.72;5.07;;;;;;;23.43;100.00;94431.78;5070136;28;20127;-62
2021/07/27 11:03:48;;;;;;;7.28;5.13;;;;;;;23.57;100.00;94447.66;5070298;28;20028;-61
2021/07/27 11:06:20;;;;;;;5.65;4.82;;;;;;;23.64;100.00;94502.47;5086796;28;20024;-61
2021/07/27 11:09:05;;;;;;;5.25;4.45;;;;;;;23.67;100.00;94559.19;5071370;28;20125;-59
2021/07/27 11:11:41;;;;;;;6.38;5.10;;;;;;;23.50;100.00;94551.41;5070863;28;20504;-62
2021/07/27 11:14:16;;;;;;;7.97;4.97;;;;;;;23.60;100.00;94561.00;5064417;28;20032;-61
2021/07/27 11:16:42;;;;;;;7.22;5.20;;;;;;;23.60;100.00;94531.72;5051385;28;20016;-61
2021/07/27 11:19:31;;;;;;;6.70;5.22;;;;;;;23.76;100.00;94556.22;5051514;28;20029;-61
2021/07/27 11:22:14;;;;;;;6.47;4.88;;;;;;;23.81;100.00;94550.47;5070098;28;20047;-61
2021/07/27 11:24:49;;;;;;;5.68;5.05;;;;;;;23.98;100.00;94502.72;5070310;28;20036;-60
2021/07/27 11:27:23;;;;;;;7.20;4.82;;;;;;;24.05;100.00;94508.31;5071504;28;20024;-61
2021/07/27 11:30:15;;;;;;;6.55;4.85;;;;;;;24.32;100.00;94481.06;5072997;28;20115;-62
2021/07/27 11:32:53;;;;;;;6.40;5.43;;;;;;;24.38;100.00;94507.72;5073237;28;20036;-61
2021/07/27 11:35:25;;;;;;;9.27;5.28;;;;;;;24.22;100.00;94507.84;5075404;28;20022;-59
2021/07/27 11:38:05;;;;;;;5.35;4.70;;;;;;;24.46;100.00;94503.16;5075282;28;20024;-59
2021/07/27 11:40:37;;;;;;;6.70;5.65;;;;;;;24.34;100.00;94498.69;5075118;28;20025;-58
2021/07/27 11:43:09;;;;;;;8.43;5.50;;;;;;;24.43;100.00;94471.84;5074679;28;20024;-62
2021/07/27 11:45:45;;;;;;;7.82;6.10;;;;;;;24.17;100.00;94466.28;5073836;28;20032;-59
2021/07/27 11:48:14;;;;;;;7.07;6.03;;;;;;;23.96;100.00;94494.88;5055843;28;20025;-63
2021/07/27 11:50:43;;;;;;;9.63;5.55;;;;;;;23.85;100.00;94460.28;5053865;28;20042;-63
2021/07/27 11:53:39;;;;;;;7.97;5.65;;;;;;;23.73;100.00;94444.84;5054567;28;20112;-64
2021/07/27 11:56:14;;;;;;;7.35;5.75;;;;;;;23.75;100.00;94422.59;5036318;28;20033;-62
2021/07/27 11:58:42;;;;;;;5.85;5.22;;;;;;;23.78;100.00;94424.63;5058120;28;20099;-63
2021/07/27 12:01:11;;;;;;;7.15;5.60;;;;;;;23.81;100.00;94437.56;5057182;28;20443;-63
2021/07/27 12:03:38;;;;;;;8.32;5.07;;;;;;;24.05;100.00;94395.34;5056995;28;20363;-64
2021/07/27 12:06:14;;;;;;;6.05;5.18;;;;;;;24.14;100.00;94413.09;5074474;28;20505;-64
2021/07/27 12:08:49;;;;;;;7.53;5.22;;;;;;;24.26;100.00;94443.00;5074641;28;20055;-64
2021/07/27 12:11:14;;;;;;;6.63;5.18;;;;;;;24.41;100.00;94449.50;5056086;28;20046;-64
2021/07/27 12:13:39;;;;;;;7.20;5.30;;;;;;;24.71;100.00;94430.38;5087032;28;20038;-63